Time;durP1;ratioP1;P1;durP2;ratioP2;P2;SDS_P1;SDS_P2;PMS_P1;PMS_P2;Temp;Humidity;BMP_temperature;BMP_pressure;BME280_temperature;BME280_humidity;BME280_pressure;Samples;Min_cycle;Max_cycle;Signal;HPM_P1;HPM_P2
2022/09/28 00:00:00;;;;;;;2.65;1.40;;;19.00;99.90;;;;;;5030923;28;20218;-68
2022/09/28 00:02:34;;;;;;;1.88;1.58;;;19.30;99.90;;;;;;5031597;28;20218;-69
2022/09/28 00:05:05;;;;;;;1.40;1.30;;;19.50;99.90;;;;;;5032724;28;20202;-68
2022/09/28 00:07:35;;;;;;;1.90;1.60;;;19.70;99.90;;;;;;5027456;28;20726;-71
2022/09/28 00:10:07;;;;;;;1.48;1.33;;;19.80;99.90;;;;;;5027582;28;20285;-69
2022/09/28 00:12:38;;;;;;;1.80;1.40;;;20.00;99.90;;;;;;5030286;28;20222;-69
2022/09/28 00:15:09;;;;;;;1.70;1.33;;;20.00;99.90;;;;;;5028856;28;20194;-69
2022/09/28 00:17:43;;;;;;;2.03;1.40;;;20.10;99.90;;;;;;5028173;28;20313;-69
2022/09/28 00:20:16;;;;;;;1.77;1.67;;;20.20;99.90;;;;;;5029802;28;20210;-71
2022/09/28 00:22:46;;;;;;;2.88;1.40;;;20.30;99.90;;;;;;5033694;28;20273;-74
2022/09/28 00:25:17;;;;;;;1.90;1.30;;;20.10;99.90;;;;;;5031471;28;20191;-73
2022/09/28 00:27:53;;;;;;;2.38;1.30;;;20.20;99.90;;;;;;5032277;28;20186;-74
2022/09/28 00:30:23;;;;;;;44.00;10.27;;;20.30;99.90;;;;;;5031991;28;20209;-72
2022/09/28 00:32:56;;;;;;;8.27;2.47;;;20.20;99.90;;;;;;5031920;28;20217;-74
2022/09/28 00:35:27;;;;;;;2.63;1.55;;;20.20;99.90;;;;;;5022468;28;20662;-75
2022/09/28 00:37:57;;;;;;;1.85;1.10;;;20.10;99.90;;;;;;5032195;28;20217;-75
2022/09/28 00:40:28;;;;;;;1.85;1.30;;;19.90;99.90;;;;;;5029311;28;20298;-73
2022/09/28 00:42:59;;;;;;;1.73;1.40;;;20.00;99.90;;;;;;5031191;28;20237;-74
2022/09/28 00:45:30;;;;;;;1.30;1.20;;;20.10;99.90;;;;;;5028225;28;20674;-75
2022/09/28 00:48:03;;;;;;;1.30;1.20;;;20.30;99.90;;;;;;5024667;28;20625;-70
2022/09/28 00:50:37;;;;;;;2.55;1.13;;;20.50;99.90;;;;;;5024617;28;20202;-74
2022/09/28 00:53:11;;;;;;;2.33;1.00;;;20.70;99.90;;;;;;5028660;28;20557;-74
2022/09/28 00:55:45;;;;;;;1.90;0.95;;;20.90;99.90;;;;;;5028968;28;20272;-74
2022/09/28 00:58:21;;;;;;;1.88;1.10;;;21.10;99.90;;;;;;5032635;28;20709;-73
2022/09/28 01:00:52;;;;;;;0.90;0.90;;;21.20;99.90;;;;;;5030097;28;20297;-73
2022/09/28 01:03:25;;;;;;;2.25;1.17;;;21.00;99.90;;;;;;5031434;28;20650;-74
2022/09/28 01:05:56;;;;;;;1.77;1.02;;;21.10;99.90;;;;;;5031994;28;20192;-72
2022/09/28 01:08:30;;;;;;;1.27;1.08;;;21.20;99.90;;;;;;5031641;28;20197;-73
2022/09/28 01:11:02;;;;;;;1.08;1.02;;;21.40;99.90;;;;;;5031705;28;20194;-73
2022/09/28 01:13:34;;;;;;;1.77;0.88;;;21.60;99.90;;;;;;5030709;28;20187;-74
2022/09/28 01:16:13;;;;;;;1.65;1.40;;;21.60;99.90;;;;;;5028971;28;20222;-73
2022/09/28 01:18:52;;;;;;;1.23;1.10;;;21.70;99.90;;;;;;5029353;28;20658;-73
2022/09/28 01:21:24;;;;;;;1.70;1.02;;;21.80;99.90;;;;;;5031341;28;20629;-72
2022/09/28 01:24:15;;;;;;;1.35;1.00;;;21.90;99.90;;;;;;5032198;28;20270;-74
2022/09/28 01:27:05;;;;;;;1.25;1.10;;;22.00;99.90;;;;;;5029462;28;20191;-74
2022/09/28 01:29:53;;;;;;;5.10;1.40;;;22.00;99.90;;;;;;5029509;28;20684;-74
2022/09/28 01:32:36;;;;;;;2.38;1.00;;;22.00;99.90;;;;;;5032089;28;20257;-68
2022/09/28 01:35:09;;;;;;;1.98;0.90;;;21.80;99.90;;;;;;5029534;28;20621;-68
2022/09/28 01:37:48;;;;;;;1.70;0.90;;;21.70;99.90;;;;;;5030359;28;20280;-71
2022/09/28 01:40:20;;;;;;;1.15;0.90;;;21.80;99.90;;;;;;5031414;28;20802;-68
2022/09/28 01:42:57;;;;;;;0.75;0.75;;;21.80;99.90;;;;;;5031173;28;20190;-69
2022/09/28 01:45:33;;;;;;;1.10;0.80;;;21.70;99.90;;;;;;5029979;28;20656;-69
2022/09/28 01:48:07;;;;;;;1.40;1.00;;;21.60;99.90;;;;;;5033610;28;20186;-69
2022/09/28 01:50:43;;;;;;;1.73;1.00;;;21.60;99.90;;;;;;5033276;28;20212;-69
2022/09/28 01:53:19;;;;;;;2.03;1.00;;;21.70;99.90;;;;;;5030761;28;20209;-69
2022/09/28 01:55:54;;;;;;;1.30;1.13;;;21.70;99.90;;;;;;5034877;28;20281;-74
2022/09/28 01:58:31;;;;;;;2.45;0.90;;;21.90;99.90;;;;;;5034767;28;20186;-68
2022/09/28 02:01:09;;;;;;;1.60;0.80;;;22.10;99.90;;;;;;5035146;28;20224;-69
2022/09/28 02:03:44;;;;;;;1.52;0.68;;;22.00;99.90;;;;;;5035001;28;20657;-71
2022/09/28 02:06:18;;;;;;;1.45;0.88;;;21.80;99.90;;;;;;5034907;28;20213;-69
2022/09/28 02:08:54;;;;;;;1.02;1.00;;;21.60;99.90;;;;;;5034779;28;20194;-69
2022/09/28 02:11:25;;;;;;;2.78;0.93;;;21.30;99.90;;;;;;5034020;28;20228;-70
2022/09/28 02:14:03;;;;;;;1.67;0.80;;;21.10;99.90;;;;;;5034152;28;20190;-69
2022/09/28 02:16:38;;;;;;;1.48;1.10;;;21.10;99.90;;;;;;5035108;28;20222;-67
2022/09/28 02:19:12;;;;;;;2.65;1.00;;;21.10;99.90;;;;;;5027937;28;20598;-68
2022/09/28 02:21:48;;;;;;;0.90;0.85;;;21.00;99.90;;;;;;5031447;28;20214;-67
2022/09/28 02:24:22;;;;;;;1.98;1.10;;;20.90;99.90;;;;;;5034506;28;20190;-68
2022/09/28 02:26:55;;;;;;;1.77;1.30;;;20.90;99.90;;;;;;5034839;28;20182;-68
2022/09/28 02:29:28;;;;;;;4.78;1.67;;;20.80;99.90;;;;;;5034250;28;20218;-68
2022/09/28 02:31:59;;;;;;;2.33;1.55;;;20.80;99.90;;;;;;5034409;28;20209;-73
2022/09/28 02:34:30;;;;;;;4.70;1.40;;;20.70;99.90;;;;;;5034073;28;20186;-70
2022/09/28 02:37:01;;;;;;;3.40;1.85;;;20.70;99.90;;;;;;5034055;28;20226;-68
2022/09/28 02:39:32;;;;;;;4.20;1.70;;;20.50;99.90;;;;;;5033359;28;20191;-68
2022/09/28 02:42:13;;;;;;;3.00;1.40;;;20.50;99.90;;;;;;5034270;28;20250;-71
2022/09/28 02:44:59;;;;;;;6.63;1.90;;;20.40;99.90;;;;;;5031505;28;20186;-71
2022/09/28 02:47:44;;;;;;;2.72;1.35;;;20.60;99.90;;;;;;5033087;28;20190;-72
2022/09/28 02:50:23;;;;;;;2.15;1.50;;;20.70;99.90;;;;;;5032478;28;20240;-70
2022/09/28 02:53:20;;;;;;;3.60;1.50;;;20.80;99.90;;;;;;5033770;28;20269;-71
2022/09/28 02:56:05;;;;;;;1.90;1.20;;;20.90;99.90;;;;;;5033721;28;20182;-74
2022/09/28 02:58:43;;;;;;;3.92;1.45;;;20.90;99.90;;;;;;5033534;28;20273;-71
2022/09/28 03:01:27;;;;;;;3.25;1.60;;;21.00;99.90;;;;;;5033263;28;20217;-69
2022/09/28 03:04:05;;;;;;;2.33;1.30;;;21.20;99.90;;;;;;5031604;28;20361;-71
2022/09/28 03:06:42;;;;;;;3.65;1.40;;;21.00;99.90;;;;;;5029743;28;20208;-68
2022/09/28 03:09:20;;;;;;;1.70;1.30;;;20.90;99.90;;;;;;5028564;28;20729;-70
2022/09/28 03:11:54;;;;;;;1.80;1.27;;;21.00;99.90;;;;;;5029713;28;20228;-70
2022/09/28 03:14:26;;;;;;;3.15;1.40;;;21.00;99.90;;;;;;5032577;28;20236;-70
2022/09/28 03:16:59;;;;;;;1.52;1.40;;;21.00;99.90;;;;;;5038430;28;20182;-73
2022/09/28 03:19:32;;;;;;;2.90;1.30;;;20.80;99.90;;;;;;5032929;28;20214;-69
2022/09/28 03:22:02;;;;;;;2.83;1.45;;;20.80;99.90;;;;;;5032394;28;20268;-72
2022/09/28 03:24:33;;;;;;;2.80;1.58;;;20.90;99.90;;;;;;5031381;28;20190;-70
2022/09/28 03:27:04;;;;;;;1.92;1.23;;;20.70;99.90;;;;;;5031625;28;20278;-69
2022/09/28 03:29:35;;;;;;;1.45;1.20;;;20.50;99.90;;;;;;5033344;28;20274;-70
2022/09/28 03:32:08;;;;;;;4.15;1.50;;;20.40;99.90;;;;;;5026682;28;20206;-72
2022/09/28 03:34:39;;;;;;;5.70;1.58;;;20.50;99.90;;;;;;5028838;28;20209;-69
2022/09/28 03:37:10;;;;;;;2.50;1.10;;;20.50;99.90;;;;;;5029205;28;20269;-70
2022/09/28 03:39:41;;;;;;;5.00;1.15;;;20.40;99.90;;;;;;5040339;28;20277;-70
2022/09/28 03:42:12;;;;;;;4.93;2.05;;;20.30;99.90;;;;;;5031541;28;20715;-70
2022/09/28 03:44:43;;;;;;;3.95;1.58;;;20.30;99.90;;;;;;5028528;28;20281;-70
2022/09/28 03:47:16;;;;;;;6.25;1.50;;;20.30;99.90;;;;;;5031167;28;20273;-69
2022/09/28 03:49:47;;;;;;;3.35;1.38;;;20.40;99.90;;;;;;5026547;28;20248;-69
2022/09/28 03:52:18;;;;;;;6.47;1.25;;;20.30;99.90;;;;;;5030439;28;20625;-73
2022/09/28 03:54:49;;;;;;;5.57;1.65;;;20.30;99.90;;;;;;5032176;28;20244;-71
2022/09/28 03:57:20;;;;;;;4.70;1.30;;;20.40;99.90;;;;;;5032791;28;20202;-69
2022/09/28 03:59:50;;;;;;;3.90;1.30;;;20.50;99.90;;;;;;5038896;28;20660;-72
2022/09/28 04:02:23;;;;;;;3.30;1.10;;;20.40;99.90;;;;;;5035306;28;20647;-69
2022/09/28 04:04:54;;;;;;;4.60;1.38;;;20.30;99.90;;;;;;5031897;28;20578;-71
2022/09/28 04:07:25;;;;;;;6.32;1.38;;;20.10;99.90;;;;;;5030135;28;20280;-69
2022/09/28 04:09:55;;;;;;;4.00;1.27;;;19.90;99.90;;;;;;5023854;28;20194;-70
2022/09/28 04:12:26;;;;;;;3.13;1.40;;;19.80;99.90;;;;;;5028676;28;20237;-70
2022/09/28 04:14:57;;;;;;;2.78;1.20;;;19.60;99.90;;;;;;5033175;28;20270;-69
2022/09/28 04:17:30;;;;;;;2.15;1.10;;;19.40;99.90;;;;;;5032087;28;20237;-69
2022/09/28 04:20:02;;;;;;;3.88;1.42;;;19.30;99.90;;;;;;5033113;28;20205;-69
2022/09/28 04:22:36;;;;;;;3.22;1.30;;;19.40;99.90;;;;;;5032013;28;20690;-69
2022/09/28 04:25:07;;;;;;;2.45;1.25;;;19.30;99.90;;;;;;5031583;28;20226;-69
2022/09/28 04:30:24;;;;;;;3.55;1.27;;;19.30;99.90;;;;;;5032614;28;20726;-69
2022/09/28 04:32:57;;;;;;;3.17;1.30;;;19.30;99.90;;;;;;5032993;28;20198;-69
2022/09/28 04:35:28;;;;;;;2.92;1.23;;;19.30;99.90;;;;;;5032644;28;20660;-68
2022/09/28 04:37:59;;;;;;;4.15;1.30;;;19.50;99.90;;;;;;5031087;28;20308;-70
2022/09/28 04:40:30;;;;;;;3.13;1.15;;;19.50;99.90;;;;;;5031311;28;20230;-72
2022/09/28 04:43:00;;;;;;;5.55;1.20;;;19.60;99.90;;;;;;5032685;28;20206;-68
2022/09/28 04:45:31;;;;;;;5.68;1.10;;;19.60;99.90;;;;;;5025981;28;20281;-68
2022/09/28 04:48:07;;;;;;;3.67;1.10;;;19.60;99.90;;;;;;5032407;28;20198;-71
2022/09/28 04:50:38;;;;;;;5.18;1.15;;;19.60;99.90;;;;;;5029388;28;20233;-69
2022/09/28 04:53:09;;;;;;;3.47;1.08;;;19.50;99.90;;;;;;5030747;28;20194;-70
2022/09/28 04:55:39;;;;;;;5.05;1.35;;;19.40;99.90;;;;;;5030671;28;20204;-68
2022/09/28 04:58:13;;;;;;;5.20;1.27;;;19.20;99.90;;;;;;5031408;28;20226;-69
2022/09/28 05:00:44;;;;;;;5.72;1.58;;;19.00;99.90;;;;;;5028771;28;20550;-69
2022/09/28 05:03:16;;;;;;;4.93;1.23;;;19.00;99.90;;;;;;5019701;28;20306;-69
2022/09/28 05:05:48;;;;;;;5.25;1.40;;;19.00;99.90;;;;;;5032467;28;20202;-68
2022/09/28 05:08:19;;;;;;;6.18;1.50;;;19.00;99.90;;;;;;5031218;28;20194;-68
2022/09/28 05:10:50;;;;;;;5.88;1.50;;;18.90;99.90;;;;;;5031913;28;20217;-69
2022/09/28 05:13:20;;;;;;;5.82;1.30;;;18.80;99.90;;;;;;5030383;28;20289;-70
2022/09/28 05:15:55;;;;;;;6.78;1.45;;;18.80;99.90;;;;;;5021188;28;20194;-69
2022/09/28 05:18:29;;;;;;;6.28;1.38;;;18.80;99.90;;;;;;5024816;28;20236;-69
2022/09/28 05:21:00;;;;;;;7.78;1.52;;;18.70;99.90;;;;;;5037277;28;20198;-69
2022/09/28 05:23:31;;;;;;;5.07;1.27;;;18.70;99.90;;;;;;5033393;28;20264;-70
2022/09/28 05:26:04;;;;;;;9.95;1.50;;;18.70;99.90;;;;;;5035298;28;20198;-69
2022/09/28 05:28:36;;;;;;;9.90;1.48;;;18.70;99.90;;;;;;5035687;28;20567;-69
2022/09/28 05:31:07;;;;;;;5.32;1.55;;;18.60;99.90;;;;;;5036155;28;20274;-71
2022/09/28 05:33:40;;;;;;;8.35;1.40;;;18.50;99.90;;;;;;5027775;28;20183;-71
2022/09/28 05:36:13;;;;;;;7.07;1.35;;;18.50;99.90;;;;;;5035438;28;20209;-74
2022/09/28 05:38:43;;;;;;;5.80;1.33;;;18.40;99.90;;;;;;5028721;28;20278;-71
2022/09/28 05:41:14;;;;;;;6.57;1.60;;;18.40;99.90;;;;;;5032180;28;20201;-72
2022/09/28 05:43:46;;;;;;;6.70;1.40;;;18.40;99.90;;;;;;5035799;28;20226;-72
2022/09/28 05:46:17;;;;;;;9.25;1.20;;;18.50;99.90;;;;;;5035916;28;20194;-72
2022/09/28 05:48:50;;;;;;;7.97;1.27;;;18.60;99.90;;;;;;5028249;28;20561;-70
2022/09/28 05:51:20;;;;;;;7.90;1.50;;;18.60;99.90;;;;;;5032029;28;20205;-74
2022/09/28 05:53:51;;;;;;;9.35;1.52;;;18.60;99.90;;;;;;5041391;28;20529;-69
2022/09/28 05:56:22;;;;;;;7.97;1.17;;;18.60;99.90;;;;;;5040851;28;20191;-69
2022/09/28 05:58:53;;;;;;;6.90;1.20;;;18.60;99.90;;;;;;5035641;28;20187;-72
2022/09/28 06:01:24;;;;;;;5.55;1.10;;;18.60;99.90;;;;;;5035306;28;20221;-71
2022/09/28 06:03:56;;;;;;;44.25;29.10;;;18.60;99.90;;;;;;5035308;28;20695;-70
2022/09/28 06:06:27;;;;;;;13.98;6.78;;;18.60;99.90;;;;;;5034367;28;20510;-72
2022/09/28 06:08:58;;;;;;;9.15;2.40;;;18.70;99.90;;;;;;5035268;28;20193;-70
2022/09/28 06:11:29;;;;;;;8.65;1.40;;;18.60;99.90;;;;;;5040569;28;20249;-73
2022/09/28 06:14:00;;;;;;;7.57;1.60;;;18.70;99.90;;;;;;5034765;28;20191;-69
2022/09/28 06:16:31;;;;;;;6.28;1.10;;;18.60;99.90;;;;;;5034956;28;20196;-72
2022/09/28 06:19:03;;;;;;;4.15;1.35;;;18.60;99.90;;;;;;5035485;28;20218;-69
2022/09/28 06:21:34;;;;;;;11.10;2.10;;;18.60;99.90;;;;;;5034672;28;20197;-70
2022/09/28 06:24:05;;;;;;;6.93;1.45;;;18.70;99.90;;;;;;5035039;28;20646;-70
2022/09/28 06:26:36;;;;;;;7.90;1.50;;;18.80;99.90;;;;;;5034363;28;20198;-70
2022/09/28 06:29:07;;;;;;;6.25;1.40;;;18.80;99.90;;;;;;5035002;28;20599;-69
2022/09/28 06:31:38;;;;;;;3.42;1.02;;;18.70;99.90;;;;;;5035095;28;20283;-70
2022/09/28 06:34:11;;;;;;;9.00;1.23;;;18.60;99.90;;;;;;5034410;28;20708;-70
2022/09/28 06:36:42;;;;;;;9.15;1.48;;;18.50;99.90;;;;;;5034520;28;20258;-69
2022/09/28 06:39:13;;;;;;;4.45;1.10;;;18.40;99.90;;;;;;5034860;28;20282;-70
2022/09/28 06:41:44;;;;;;;4.35;1.20;;;18.30;99.90;;;;;;5035821;28;20190;-69
2022/09/28 06:44:15;;;;;;;3.55;1.20;;;18.30;99.90;;;;;;5034442;28;20225;-70
2022/09/28 06:46:45;;;;;;;7.05;1.15;;;18.20;99.90;;;;;;5034135;28;20191;-69
2022/09/28 06:49:18;;;;;;;7.22;1.63;;;18.20;99.90;;;;;;5034905;28;20230;-72
2022/09/28 06:51:49;;;;;;;3.13;1.00;;;18.10;99.90;;;;;;5038113;28;20652;-73
2022/09/28 06:54:24;;;;;;;7.53;1.27;;;18.10;99.90;;;;;;5040635;28;20222;-71
2022/09/28 06:56:55;;;;;;;5.18;1.10;;;18.10;99.90;;;;;;5034177;28;20194;-71
2022/09/28 06:59:26;;;;;;;6.05;1.45;;;18.00;99.90;;;;;;5038195;28;20281;-71
2022/09/28 07:01:57;;;;;;;5.30;1.10;;;18.00;99.90;;;;;;5035016;28;20225;-72
2022/09/28 07:04:30;;;;;;;8.18;1.17;;;17.90;99.90;;;;;;5034287;28;20237;-72
2022/09/28 07:07:01;;;;;;;3.75;1.38;;;17.90;99.90;;;;;;5032945;28;20225;-71
2022/09/28 07:09:32;;;;;;;4.43;1.23;;;17.80;99.90;;;;;;5034160;28;20730;-73
2022/09/28 07:12:03;;;;;;;8.35;1.35;;;17.80;99.90;;;;;;5033774;28;20221;-72
2022/09/28 07:14:35;;;;;;;6.68;1.35;;;17.80;99.90;;;;;;5034421;28;20190;-70
2022/09/28 07:17:07;;;;;;;88.25;58.65;;;17.80;99.90;;;;;;5035552;28;20191;-69
2022/09/28 07:19:39;;;;;;;9.52;2.80;;;17.80;99.90;;;;;;5036811;28;20194;-70
2022/09/28 07:22:13;;;;;;;6.90;1.80;;;17.70;99.90;;;;;;5033683;28;20293;-72
2022/09/28 07:24:44;;;;;;;6.10;1.42;;;17.70;99.90;;;;;;5034222;28;20201;-71
2022/09/28 07:27:15;;;;;;;7.20;2.20;;;17.70;99.90;;;;;;5029833;28;20183;-73
2022/09/28 07:29:45;;;;;;;5.50;1.30;;;17.60;99.90;;;;;;5032332;28;20667;-70
2022/09/28 07:32:16;;;;;;;8.80;1.40;;;17.60;99.90;;;;;;5029210;28;20576;-71
2022/09/28 07:34:49;;;;;;;8.00;2.00;;;17.60;99.90;;;;;;5030457;28;20206;-74
2022/09/28 07:37:20;;;;;;;4.70;1.10;;;17.60;99.90;;;;;;5026387;28;20229;-72
2022/09/28 07:42:37;;;;;;;7.25;1.38;;;17.60;99.90;;;;;;5030651;28;20587;-71
2022/09/28 07:45:09;;;;;;;4.90;1.38;;;17.60;99.90;;;;;;5033169;28;20645;-71
2022/09/28 07:47:39;;;;;;;5.38;1.20;;;17.60;99.90;;;;;;5031757;28;20635;-71
2022/09/28 07:50:16;;;;;;;5.10;1.40;;;17.60;99.90;;;;;;5029677;28;20563;-71
2022/09/28 07:52:48;;;;;;;5.28;1.30;;;17.60;99.90;;;;;;5031407;28;20198;-75
2022/09/28 07:55:19;;;;;;;6.10;1.10;;;17.60;99.90;;;;;;5033510;28;20587;-74
2022/09/28 07:57:55;;;;;;;6.30;1.20;;;17.50;99.90;;;;;;5035429;28;20229;-71
2022/09/28 08:00:25;;;;;;;6.30;1.40;;;17.50;99.90;;;;;;5032635;28;20198;-70
2022/09/28 08:02:56;;;;;;;5.60;1.48;;;17.50;99.90;;;;;;5040271;28;20225;-70
2022/09/28 08:05:31;;;;;;;6.28;1.40;;;17.50;99.90;;;;;;5025533;28;20210;-71
2022/09/28 08:08:02;;;;;;;6.32;1.70;;;17.50;99.90;;;;;;5033043;28;20194;-71
2022/09/28 08:10:32;;;;;;;3.13;1.23;;;17.40;99.90;;;;;;5029631;28;20208;-73
2022/09/28 08:13:03;;;;;;;4.82;1.40;;;17.40;99.90;;;;;;5032942;28;20274;-73
2022/09/28 08:15:37;;;;;;;4.10;1.15;;;17.40;99.90;;;;;;5031848;28;20547;-74
2022/09/28 08:18:08;;;;;;;5.70;1.08;;;17.40;99.90;;;;;;5035248;28;20202;-72
2022/09/28 08:23:27;;;;;;;7.20;1.50;;;17.50;99.90;;;;;;5030858;28;20233;-72
2022/09/28 08:25:58;;;;;;;5.28;1.20;;;17.50;99.90;;;;;;5031902;28;20234;-70
2022/09/28 08:28:29;;;;;;;8.25;1.38;;;17.50;99.90;;;;;;5031869;28;20194;-71
2022/09/28 08:31:02;;;;;;;6.15;1.20;;;17.50;99.90;;;;;;5029580;28;20204;-71
2022/09/28 08:33:33;;;;;;;4.95;1.95;;;17.50;99.90;;;;;;5031363;28;20662;-70
2022/09/28 08:36:06;;;;;;;3.55;1.10;;;17.50;99.90;;;;;;5043356;28;20273;-70
2022/09/28 08:38:37;;;;;;;4.85;1.40;;;17.50;99.90;;;;;;4985924;28;20283;-71
2022/09/28 08:41:18;;;;;;;7.15;1.65;;;17.50;99.90;;;;;;4990863;28;20605;-72
2022/09/28 08:44:22;;;;;;;5.50;1.60;;;17.50;99.90;;;;;;4990387;28;20302;-70
2022/09/28 08:46:58;;;;;;;6.38;1.50;;;17.50;99.90;;;;;;4985741;28;20200;-70
2022/09/28 08:49:33;;;;;;;6.80;1.80;;;17.50;99.90;;;;;;4990242;28;20202;-71
2022/09/28 08:52:12;;;;;;;7.28;1.77;;;17.50;99.90;;;;;;4990309;28;20226;-69
2022/09/28 08:54:49;;;;;;;5.28;1.45;;;17.50;99.90;;;;;;4993750;28;20199;-70
2022/09/28 08:57:24;;;;;;;8.20;1.77;;;17.50;99.90;;;;;;4987548;28;20199;-69
2022/09/28 08:59:57;;;;;;;8.90;2.08;;;17.40;99.90;;;;;;4992782;28;20195;-71
2022/09/28 09:02:32;;;;;;;5.35;1.45;;;17.40;99.90;;;;;;4993367;28;20202;-70
2022/09/28 09:05:05;;;;;;;11.07;2.22;;;17.40;99.90;;;;;;4994947;28;20191;-71
2022/09/28 09:08:01;;;;;;;10.63;1.70;;;17.30;99.90;;;;;;4993788;28;20206;-71
2022/09/28 09:10:54;;;;;;;8.85;2.03;;;17.30;99.90;;;;;;4994372;28;20199;-71
2022/09/28 09:13:57;;;;;;;4.10;1.80;;;17.20;99.90;;;;;;4992413;28;20199;-70
2022/09/28 09:16:39;;;;;;;6.18;2.25;;;17.20;99.90;;;;;;4985062;28;20195;-69
2022/09/28 09:19:17;;;;;;;6.95;2.08;;;17.00;99.90;;;;;;4996003;28;20201;-70
2022/09/28 09:21:56;;;;;;;7.13;1.88;;;17.00;99.90;;;;;;4993858;28;20226;-73
2022/09/28 09:24:33;;;;;;;11.82;2.60;;;16.90;99.90;;;;;;4987306;28;20219;-72
2022/09/28 09:27:26;;;;;;;10.25;2.38;;;16.80;99.90;;;;;;4988360;28;20652;-70
2022/09/28 09:30:07;;;;;;;8.60;2.60;;;16.90;99.90;;;;;;4994134;28;20200;-72
2022/09/28 09:33:01;;;;;;;8.85;2.63;;;16.80;99.90;;;;;;4993675;28;20202;-72
2022/09/28 09:36:00;;;;;;;8.07;3.05;;;16.80;99.90;;;;;;4993346;28;20217;-73
2022/09/28 09:38:48;;;;;;;9.23;3.15;;;16.80;99.90;;;;;;4988353;28;20240;-71
2022/09/28 09:41:36;;;;;;;7.95;2.72;;;16.80;99.90;;;;;;4995647;28;20234;-72
2022/09/28 09:44:31;;;;;;;7.40;2.70;;;16.80;99.90;;;;;;4995794;28;20310;-74
2022/09/28 09:47:07;;;;;;;7.85;1.77;;;16.80;99.90;;;;;;4992000;28;20234;-74
2022/09/28 09:49:42;;;;;;;6.03;2.17;;;16.80;99.90;;;;;;4993024;28;20199;-75
2022/09/28 09:52:20;;;;;;;5.20;1.90;;;16.80;99.90;;;;;;4993935;28;20206;-73
2022/09/28 09:54:54;;;;;;;9.07;2.20;;;16.80;99.90;;;;;;4988523;28;20217;-73
2022/09/28 09:57:29;;;;;;;4.55;1.83;;;16.80;99.90;;;;;;4995246;28;20230;-74
2022/09/28 10:00:01;;;;;;;6.03;2.17;;;16.70;99.90;;;;;;4991852;28;20656;-72
2022/09/28 10:02:34;;;;;;;5.60;2.22;;;16.80;99.90;;;;;;4997578;28;20188;-73
2022/09/28 10:05:07;;;;;;;7.45;1.85;;;16.80;99.90;;;;;;4996274;28;20204;-72
2022/09/28 10:07:44;;;;;;;8.13;1.77;;;16.80;99.90;;;;;;4994349;28;20188;-74
2022/09/28 10:10:21;;;;;;;4.97;1.50;;;16.80;99.90;;;;;;4994596;28;20195;-73
2022/09/28 10:12:55;;;;;;;5.72;1.60;;;16.80;99.90;;;;;;4993694;28;20222;-71
2022/09/28 10:15:28;;;;;;;4.00;1.50;;;16.80;99.90;;;;;;4995316;28;20639;-72
2022/09/28 10:18:01;;;;;;;2.03;1.13;;;16.80;99.90;;;;;;4990924;28;20561;-73
2022/09/28 10:20:35;;;;;;;3.90;1.17;;;16.80;99.90;;;;;;4992164;28;20202;-73
2022/09/28 10:23:08;;;;;;;3.70;0.98;;;16.70;99.90;;;;;;4993268;28;20571;-71
2022/09/28 10:25:40;;;;;;;2.45;0.70;;;16.60;99.90;;;;;;4992231;28;20282;-75
2022/09/28 10:28:20;;;;;;;1.95;0.80;;;16.50;99.90;;;;;;4993128;28;20279;-73
2022/09/28 10:30:51;;;;;;;1.30;0.60;;;16.40;99.90;;;;;;4991169;28;20200;-73
2022/09/28 10:33:33;;;;;;;1.48;0.70;;;16.40;99.90;;;;;;4994153;28;20600;-74
2022/09/28 10:36:07;;;;;;;2.13;0.68;;;16.40;99.90;;;;;;4990687;28;20208;-73
2022/09/28 10:38:38;;;;;;;2.65;0.80;;;16.30;99.90;;;;;;5033859;28;20225;-74
2022/09/28 10:41:13;;;;;;;1.70;0.88;;;16.30;99.90;;;;;;5031530;28;20190;-74
2022/09/28 10:44:04;;;;;;;0.88;0.60;;;16.20;99.90;;;;;;5030741;28;20284;-74
2022/09/28 10:46:37;;;;;;;2.05;0.70;;;16.10;99.90;;;;;;5030949;28;20201;-75
2022/09/28 10:49:15;;;;;;;1.08;0.50;;;16.10;99.90;;;;;;5030128;28;20198;-75
2022/09/28 10:51:48;;;;;;;1.50;0.68;;;16.00;99.90;;;;;;5031633;28;20236;-73
2022/09/28 10:54:20;;;;;;;0.63;0.60;;;16.00;99.90;;;;;;5033204;28;20286;-71
2022/09/28 10:56:52;;;;;;;0.82;0.50;;;16.00;99.90;;;;;;5033608;28;20186;-75
2022/09/28 10:59:41;;;;;;;0.70;0.43;;;15.90;99.90;;;;;;5034066;28;20187;-75
2022/09/28 11:02:26;;;;;;;1.10;0.50;;;15.90;99.90;;;;;;5033144;28;20299;-72
2022/09/28 11:04:59;;;;;;;1.05;0.60;;;15.90;99.90;;;;;;5032803;28;20224;-74
2022/09/28 11:07:32;;;;;;;1.42;0.70;;;15.80;99.90;;;;;;5031107;28;20194;-71
2022/09/28 11:10:03;;;;;;;0.90;0.50;;;15.80;99.90;;;;;;5032037;28;20268;-74
2022/09/28 11:12:43;;;;;;;2.47;0.70;;;15.80;99.90;;;;;;5029384;28;20309;-74
2022/09/28 11:15:21;;;;;;;1.30;0.70;;;15.70;99.90;;;;;;5032997;28;20198;-70
2022/09/28 11:17:52;;;;;;;1.38;0.70;;;15.70;99.90;;;;;;5031745;28;20280;-72
2022/09/28 11:20:37;;;;;;;1.20;0.60;;;15.70;99.90;;;;;;5030455;28;20202;-71
2022/09/28 11:23:22;;;;;;;1.05;0.65;;;15.60;99.90;;;;;;5031146;28;20209;-70
2022/09/28 11:26:11;;;;;;;1.20;0.47;;;15.60;99.90;;;;;;5029107;28;20202;-74
2022/09/28 11:28:43;;;;;;;1.75;0.50;;;15.50;99.90;;;;;;5029679;28;20198;-70
2022/09/28 11:31:15;;;;;;;0.85;0.60;;;15.50;99.90;;;;;;5028961;28;20566;-71
2022/09/28 11:33:48;;;;;;;0.73;0.50;;;15.50;99.90;;;;;;5029681;28;20229;-74
2022/09/28 11:36:33;;;;;;;1.10;0.60;;;15.50;99.90;;;;;;5030178;28;20234;-73
2022/09/28 11:39:10;;;;;;;3.08;0.70;;;15.40;99.90;;;;;;5026194;28;20226;-74
2022/09/28 11:41:57;;;;;;;1.20;0.60;;;15.40;99.90;;;;;;5028052;28;20280;-73
2022/09/28 11:44:43;;;;;;;1.23;0.63;;;15.40;99.90;;;;;;5032599;28;20214;-73
2022/09/28 11:47:45;;;;;;;0.57;0.57;;;15.30;99.90;;;;;;5030376;28;20204;-74
2022/09/28 11:50:28;;;;;;;0.60;0.60;;;15.30;99.90;;;;;;5031216;28;20201;-73
2022/09/28 11:53:10;;;;;;;1.85;0.75;;;15.30;99.90;;;;;;5030696;28;20195;-73
2022/09/28 11:55:44;;;;;;;0.50;0.50;;;15.30;99.90;;;;;;5024834;28;20194;-73
2022/09/28 11:58:26;;;;;;;2.03;0.85;;;15.30;99.90;;;;;;5025677;28;20198;-72
2022/09/28 12:01:02;;;;;;;1.00;0.80;;;15.30;99.90;;;;;;5028197;28;20657;-72
2022/09/28 12:03:41;;;;;;;1.90;0.63;;;15.20;99.90;;;;;;5028198;28;20214;-73
2022/09/28 12:06:16;;;;;;;1.10;0.80;;;15.20;99.90;;;;;;5028183;28;20190;-70
2022/09/28 12:08:53;;;;;;;1.42;0.80;;;15.20;99.90;;;;;;5027269;28;20212;-71
2022/09/28 12:11:28;;;;;;;1.67;0.75;;;15.20;99.90;;;;;;5028796;28;20252;-70
2022/09/28 12:14:02;;;;;;;1.20;0.65;;;15.20;99.90;;;;;;5029879;28;20230;-70
2022/09/28 12:16:42;;;;;;;1.30;0.70;;;15.20;99.90;;;;;;5031091;28;20234;-70
2022/09/28 12:19:20;;;;;;;1.30;0.70;;;15.20;99.90;;;;;;5030718;28;20635;-71
2022/09/28 12:21:54;;;;;;;1.38;0.80;;;15.20;99.90;;;;;;5029365;28;20194;-70
2022/09/28 12:24:29;;;;;;;2.05;0.82;;;15.20;99.90;;;;;;5030889;28;20301;-71
2022/09/28 12:27:05;;;;;;;2.10;0.80;;;15.20;99.90;;;;;;5027841;28;20190;-73
2022/09/28 12:29:41;;;;;;;1.65;0.85;;;15.20;99.90;;;;;;5028118;28;20301;-72
2022/09/28 12:32:24;;;;;;;2.45;0.80;;;15.20;99.90;;;;;;5029697;28;20669;-71
2022/09/28 12:34:58;;;;;;;0.60;0.60;;;15.20;99.90;;;;;;5030331;28;20194;-70
2022/09/28 12:37:47;;;;;;;1.45;0.70;;;15.20;99.90;;;;;;5029055;28;20321;-71
2022/09/28 12:40:38;;;;;;;1.42;0.60;;;15.20;99.90;;;;;;5028879;28;20194;-70
2022/09/28 12:43:37;;;;;;;1.15;1.00;;;15.10;99.90;;;;;;5028513;28;20205;-70
2022/09/28 12:46:33;;;;;;;0.88;0.70;;;15.00;99.90;;;;;;5016435;28;20207;-70
2022/09/28 12:49:28;;;;;;;1.70;0.80;;;15.00;99.90;;;;;;5025759;28;20277;-71
2022/09/28 12:52:02;;;;;;;0.70;0.70;;;15.00;99.90;;;;;;5030763;28;20198;-70
2022/09/28 12:54:54;;;;;;;0.80;0.70;;;15.00;99.90;;;;;;5030944;28;20730;-70
2022/09/28 12:57:38;;;;;;;1.48;0.88;;;15.10;99.90;;;;;;5000301;28;20681;-70
2022/09/28 13:00:13;;;;;;;0.70;0.63;;;15.10;99.90;;;;;;5027691;28;20662;-70
2022/09/28 13:03:25;;;;;;;1.67;0.80;;;15.10;99.90;;;;;;5030051;28;20288;-71
2022/09/28 13:06:27;;;;;;;2.42;1.00;;;15.10;99.90;;;;;;4988296;28;20291;-71
2022/09/28 13:09:18;;;;;;;1.02;0.70;;;15.10;99.90;;;;;;5026624;28;20194;-69
2022/09/28 13:12:00;;;;;;;1.90;0.88;;;15.00;99.90;;;;;;5028957;28;20320;-70
2022/09/28 13:15:09;;;;;;;0.98;0.80;;;15.00;99.90;;;;;;5030688;28;20192;-71
2022/09/28 13:17:54;;;;;;;2.20;0.80;;;15.00;99.90;;;;;;5029915;28;20274;-73
2022/09/28 13:20:31;;;;;;;3.03;1.00;;;15.00;99.90;;;;;;5029545;28;20202;-71
2022/09/28 13:23:13;;;;;;;2.53;1.20;;;15.00;99.90;;;;;;5024664;28;20191;-73
2022/09/28 13:25:51;;;;;;;3.90;1.00;;;14.90;99.90;;;;;;5029286;28;20709;-71
2022/09/28 13:28:24;;;;;;;3.40;1.30;;;14.90;99.90;;;;;;5029732;28;20212;-71
2022/09/28 13:30:56;;;;;;;1.55;0.80;;;14.90;99.90;;;;;;5029505;28;20613;-71
2022/09/28 13:33:35;;;;;;;1.05;0.80;;;14.90;99.90;;;;;;5032206;28;20232;-71
2022/09/28 13:36:27;;;;;;;1.60;0.90;;;14.90;99.90;;;;;;5022895;28;20667;-69